createdAt,value
2023-02-26T00:00:58.583Z,4.1
2023-02-26T00:07:18.483Z,4.1
2023-02-26T00:13:41.645Z,2.6
2023-02-26T00:20:01.604Z,2.6
2023-02-26T00:26:24.719Z,2.5
2023-02-26T00:32:44.652Z,2.5
2023-02-26T00:39:07.552Z,1.7
2023-02-26T00:45:27.496Z,1.7
2023-02-26T00:51:50.712Z,2.6
2023-02-26T00:58:10.511Z,2.6
2023-02-26T01:04:33.632Z,1.4
2023-02-26T01:10:53.685Z,1.4
2023-02-26T01:17:16.763Z,2.6
2023-02-26T01:23:36.487Z,2.6
2023-02-26T01:29:59.520Z,1.8
2023-02-26T01:36:19.543Z,1.8
2023-02-26T01:42:42.547Z,1.7
2023-02-26T01:49:02.567Z,1.7
2023-02-26T01:55:25.535Z,0.4
2023-02-26T02:01:45.566Z,0.4
2023-02-26T02:08:08.578Z,3
2023-02-26T02:14:28.546Z,3
2023-02-26T02:20:51.497Z,0.9
2023-02-26T02:27:11.548Z,0.9
2023-02-26T02:33:34.621Z,1.4
2023-02-26T02:39:54.686Z,1.4
2023-02-26T02:46:17.822Z,1.7
2023-02-26T02:52:37.759Z,1.7
2023-02-26T02:59:00.593Z,3.5
2023-02-26T03:05:20.617Z,3.5
2023-02-26T03:11:43.550Z,1.2
2023-02-26T03:18:03.597Z,1.2
2023-02-26T03:24:26.643Z,1.7
2023-02-26T03:30:46.641Z,1.7
2023-02-26T03:37:09.501Z,1.3
2023-02-26T03:43:29.618Z,1.3
2023-02-26T03:49:52.586Z,1.7
2023-02-26T03:56:12.555Z,1.7
2023-02-26T04:02:35.744Z,1.8
2023-02-26T04:26:52.950Z,1.2
2023-02-26T04:33:12.503Z,1.2
2023-02-26T04:39:35.621Z,1.4
2023-02-26T04:45:55.789Z,1.4
2023-02-26T04:52:18.678Z,0.8
2023-02-26T04:58:38.528Z,0.8
2023-02-26T05:05:01.592Z,0.9
2023-02-26T05:11:21.563Z,0.9
2023-02-26T05:17:44.700Z,1.6
2023-02-26T05:24:04.549Z,1.6
2023-02-26T05:30:27.681Z,1.9
2023-02-26T05:36:47.756Z,1.9
2023-02-26T05:43:10.551Z,1.7
2023-02-26T05:49:30.640Z,1.7
2023-02-26T05:55:53.646Z,1.4
2023-02-26T06:02:13.659Z,1.4
2023-02-26T06:08:36.559Z,1.9
2023-02-26T06:14:56.631Z,1.9
2023-02-26T06:21:19.699Z,1.2
2023-02-26T06:27:39.749Z,1.2
2023-02-26T06:34:02.736Z,1.5
2023-02-26T06:40:22.711Z,1.5
2023-02-26T06:46:46.570Z,2.1
2023-02-26T06:53:06.645Z,2.1
2023-02-26T06:59:29.589Z,0.8
2023-02-26T07:05:49.563Z,0.8
2023-02-26T07:12:12.568Z,2.2
2023-02-26T07:18:32.691Z,2.2
2023-02-26T07:24:55.571Z,0.7
2023-02-26T07:31:15.697Z,0.7
2023-02-26T07:37:38.620Z,1.4
2023-02-26T07:43:58.793Z,1.4
2023-02-26T07:50:21.724Z,2
2023-02-26T07:56:41.562Z,2
2023-02-26T08:03:04.688Z,1.6
2023-02-26T08:09:24.536Z,1.6
2023-02-26T08:15:47.623Z,1.6
2023-02-26T08:22:07.691Z,1.6
2023-02-26T08:28:30.555Z,1.3
2023-02-26T08:34:50.598Z,1.3
2023-02-26T08:41:13.609Z,2
2023-02-26T08:47:34.096Z,2
2023-02-26T08:53:57.130Z,2
2023-02-26T09:00:16.604Z,2
2023-02-26T09:22:47.542Z,2.5
2023-02-26T09:29:10.089Z,2.5
2023-02-26T09:35:32.520Z,2.5
2023-02-26T09:41:52.517Z,2.5
2023-02-26T09:48:15.530Z,1.3
2023-02-26T09:54:35.629Z,1.3
2023-02-26T10:00:58.673Z,0.3
2023-02-26T10:07:18.595Z,0.3
2023-02-26T10:13:56.400Z,0.9
2023-02-26T10:20:01.526Z,0.9
2023-02-26T10:26:24.990Z,2.5
2023-02-26T10:32:44.748Z,2.5
2023-02-26T10:39:07.611Z,0.1
2023-02-26T10:45:27.631Z,0.1
2023-02-26T10:51:50.522Z,0.7
2023-02-26T10:58:10.584Z,0.7
2023-02-26T11:04:33.488Z,0.7
2023-02-26T11:10:53.535Z,0.7
2023-02-26T11:17:16.709Z,1.6
2023-02-26T11:23:36.594Z,1.6
2023-02-26T11:29:59.603Z,0.3
2023-02-26T11:36:19.579Z,0.3
2023-02-26T11:42:42.596Z,0.5
2023-02-26T11:49:02.567Z,0.5
2023-02-26T11:55:25.577Z,0.2
2023-02-26T12:01:45.584Z,0.2
2023-02-26T12:08:08.627Z,0.5
2023-02-26T12:14:28.524Z,0.5
2023-02-26T12:20:51.633Z,0.5
2023-02-26T12:27:11.525Z,0.5
2023-02-26T12:33:34.616Z,0.8
2023-02-26T12:39:54.661Z,0.8
2023-02-26T12:46:17.635Z,0.2
2023-02-26T12:52:37.731Z,0.2
2023-02-26T12:59:00.607Z,0.6
2023-02-26T13:05:20.614Z,0.6
2023-02-26T13:11:43.560Z,0.8
2023-02-26T13:18:03.594Z,0.8
2023-02-26T13:24:26.581Z,0.3
2023-02-26T13:30:46.860Z,0.3
2023-02-26T13:37:09.593Z,0.4
2023-02-26T13:43:29.620Z,0.4
2023-02-26T13:49:52.625Z,0.9
2023-02-26T13:56:12.609Z,0.9
2023-02-26T14:02:35.571Z,1.9
2023-02-26T14:08:55.596Z,1.9
2023-02-26T14:15:18.632Z,0.7
2023-02-26T14:38:55.038Z,0.8
2023-02-26T14:45:14.466Z,0.8
2023-02-26T14:51:37.543Z,0.8
2023-02-26T14:57:57.563Z,0.8
2023-02-26T15:04:20.509Z,1
2023-02-26T15:10:40.559Z,1
2023-02-26T15:17:03.562Z,0.4
2023-02-26T15:23:23.544Z,0.4
2023-02-26T15:29:46.555Z,0.3
2023-02-26T15:36:06.589Z,0.3
2023-02-26T15:42:29.601Z,0.6
2023-02-26T15:48:49.947Z,0.6
2023-02-26T15:55:12.727Z,0.3
2023-02-26T16:01:32.635Z,0.3
2023-02-26T16:07:55.646Z,0.1
2023-02-26T16:14:15.582Z,0.1
2023-02-26T16:20:38.535Z,0.4
2023-02-26T16:26:58.551Z,0.4
2023-02-26T16:33:21.551Z,1
2023-02-26T16:39:41.567Z,1
2023-02-26T16:46:04.516Z,0.1
2023-02-26T16:52:24.712Z,0.1
2023-02-26T16:58:47.943Z,0.1
2023-02-26T17:05:07.630Z,0.1
2023-02-26T17:11:30.544Z,0.6
2023-02-26T17:17:50.580Z,0.6
2023-02-26T17:24:13.527Z,0.6
2023-02-26T17:30:33.767Z,0.6
2023-02-26T17:36:56.500Z,1.1
2023-02-26T17:43:16.531Z,1.1
2023-02-26T17:49:39.732Z,1.2
2023-02-26T17:55:59.748Z,1.2
2023-02-26T18:02:22.723Z,1.5
2023-02-26T18:08:42.701Z,1.5
2023-02-26T18:15:05.718Z,0.2
2023-02-26T18:21:25.794Z,0.2
2023-02-26T18:27:48.727Z,0.8
2023-02-26T18:34:08.603Z,0.8
2023-02-26T18:40:31.655Z,1
2023-02-26T18:46:51.764Z,1
2023-02-26T18:53:14.907Z,1.2
2023-02-26T18:59:34.538Z,1.2
2023-02-26T19:05:57.632Z,0.7
2023-02-26T19:12:17.563Z,0.7
2023-02-26T19:18:40.548Z,0.9
2023-02-26T19:34:48.328Z,2
2023-02-26T19:41:08.511Z,2
2023-02-26T19:47:31.700Z,3.3
2023-02-26T19:53:51.733Z,3.3
2023-02-26T20:00:14.653Z,3.3
2023-02-26T20:06:34.740Z,3.3
2023-02-26T20:12:57.531Z,1.3
2023-02-26T20:19:17.532Z,1.3
2023-02-26T20:25:40.567Z,2
2023-02-26T20:32:00.659Z,2
2023-02-26T20:38:23.517Z,1.3
2023-02-26T20:44:43.476Z,1.3
2023-02-26T20:51:06.540Z,2.1
2023-02-26T20:57:26.588Z,2.1
2023-02-26T21:03:49.524Z,1.3
2023-02-26T21:10:09.615Z,1.3
2023-02-26T21:16:32.558Z,2.1
2023-02-26T21:22:52.524Z,2.1
2023-02-26T21:29:15.593Z,2.1
2023-02-26T21:35:35.597Z,2.1
2023-02-26T21:41:58.553Z,5
2023-02-26T21:48:18.604Z,5
2023-02-26T21:54:41.647Z,3.4
2023-02-26T22:01:01.592Z,3.4
2023-02-26T22:07:24.606Z,4.6
2023-02-26T22:13:44.660Z,4.6
2023-02-26T22:20:07.556Z,3.2
2023-02-26T22:26:27.568Z,3.2
2023-02-26T22:32:50.525Z,2.7
2023-02-26T22:39:10.642Z,2.7
2023-02-26T22:45:33.714Z,4.4
2023-02-26T22:51:53.689Z,4.4
2023-02-26T22:58:16.549Z,6
2023-02-26T23:22:30.565Z,7.9
2023-02-26T23:28:50.497Z,7.9
2023-02-26T23:35:13.627Z,7.9
2023-02-26T23:41:33.532Z,7.9
2023-02-26T23:47:56.636Z,4.2
2023-02-26T23:54:16.624Z,4.2
